CheckWX is a tool to help pilots better visualize weather data.  It is not intended as a substitute for an official pre-flight weather briefing.

00:25:21 UTC

KFYV METAR
Drake Field Airport
Fayetteville, Arkansas, USA
Current

32 mins ago

KFYV 162353Z 19004KT 10SM CLR 07/M04 A3011 RMK AO2 SLP202 T00721044 10150 20067 55007
Observed
Nov-16 @ 23:53 UTC
Wind
  • 190° at 4 KTS
Visibility
10 SM
Flight Rules
VFR
Cloud Levels
  • Clear skies
Temperature
C / 45°F
Dewpoint
-4°C / 25°F
Humidity
46%
Altimeter
30.11" Hg
Pressure
1019.62 hPa
Previous

2 hours ago

KFYV 162253Z 17007KT 10SM CLR 10/M04 A3010 RMK AO2 SLP198 T01001039
Observed
Nov-16 @ 22:53 UTC
Wind
  • 170° at 7 KTS
Visibility
10 SM
Flight Rules
VFR
Cloud Levels
  • Clear skies
Temperature
10°C / 50°F
Dewpoint
-4°C / 25°F
Humidity
37%
Altimeter
30.1" Hg
Pressure
1019.32 hPa
Previous

3 hours ago

KFYV 162153Z 18008KT 10SM CLR 14/M03 A3011 RMK AO2 SLP201 T01391033
Observed
Nov-16 @ 21:53 UTC
Wind
  • 180° at 8 KTS
Visibility
10 SM
Flight Rules
VFR
Cloud Levels
  • Clear skies
Temperature
14°C / 57°F
Dewpoint
-3°C / 27°F
Humidity
31%
Altimeter
30.11" Hg
Pressure
1019.62 hPa